sensor_id;sensor_type;location;lat;lon;timestamp;P1;durP1;ratioP1;P2;durP2;ratioP2
37407;SDS011;24866;50.248;8.252;2024-03-25T00:01:46;8.35;;;2.38;;
37407;SDS011;24866;50.248;8.252;2024-03-25T00:04:16;9.82;;;1.80;;
37407;SDS011;24866;50.248;8.252;2024-03-25T00:06:48;5.20;;;1.35;;
37407;SDS011;24866;50.248;8.252;2024-03-25T00:09:18;8.68;;;2.65;;
37407;SDS011;24866;50.248;8.252;2024-03-25T00:11:48;9.75;;;1.60;;
37407;SDS011;24866;50.248;8.252;2024-03-25T00:14:22;8.18;;;1.92;;
37407;SDS011;24866;50.248;8.252;2024-03-25T00:16:52;8.20;;;1.67;;
37407;SDS011;24866;50.248;8.252;2024-03-25T00:19:23;9.95;;;1.80;;
37407;SDS011;24866;50.248;8.252;2024-03-25T00:21:53;5.53;;;1.92;;
37407;SDS011;24866;50.248;8.252;2024-03-25T00:24:22;8.32;;;2.22;;
37407;SDS011;24866;50.248;8.252;2024-03-25T00:26:52;9.52;;;2.05;;
37407;SDS011;24866;50.248;8.252;2024-03-25T00:29:21;7.85;;;1.90;;
37407;SDS011;24866;50.248;8.252;2024-03-25T00:31:51;4.05;;;1.45;;
37407;SDS011;24866;50.248;8.252;2024-03-25T00:34:20;7.55;;;1.67;;
37407;SDS011;24866;50.248;8.252;2024-03-25T00:36:52;13.00;;;2.30;;
37407;SDS011;24866;50.248;8.252;2024-03-25T00:39:22;6.95;;;1.75;;
37407;SDS011;24866;50.248;8.252;2024-03-25T00:41:52;9.95;;;2.47;;
37407;SDS011;24866;50.248;8.252;2024-03-25T00:44:21;6.53;;;1.67;;
37407;SDS011;24866;50.248;8.252;2024-03-25T00:46:51;12.55;;;1.50;;
37407;SDS011;24866;50.248;8.252;2024-03-25T00:49:21;7.60;;;1.45;;
37407;SDS011;24866;50.248;8.252;2024-03-25T00:51:52;9.55;;;1.48;;
37407;SDS011;24866;50.248;8.252;2024-03-25T00:54:21;13.48;;;3.03;;
37407;SDS011;24866;50.248;8.252;2024-03-25T00:56:52;9.32;;;2.17;;
37407;SDS011;24866;50.248;8.252;2024-03-25T00:59:21;12.32;;;2.78;;
37407;SDS011;24866;50.248;8.252;2024-03-25T01:01:51;11.40;;;2.35;;
37407;SDS011;24866;50.248;8.252;2024-03-25T01:04:21;11.65;;;2.22;;
37407;SDS011;24866;50.248;8.252;2024-03-25T01:06:52;9.40;;;1.80;;
37407;SDS011;24866;50.248;8.252;2024-03-25T01:09:21;16.23;;;2.42;;
37407;SDS011;24866;50.248;8.252;2024-03-25T01:11:53;7.07;;;1.30;;
37407;SDS011;24866;50.248;8.252;2024-03-25T01:14:22;13.15;;;2.58;;
37407;SDS011;24866;50.248;8.252;2024-03-25T01:16:53;11.30;;;3.35;;
37407;SDS011;24866;50.248;8.252;2024-03-25T01:19:22;7.78;;;3.00;;
37407;SDS011;24866;50.248;8.252;2024-03-25T01:21:54;12.07;;;2.95;;
37407;SDS011;24866;50.248;8.252;2024-03-25T01:24:23;8.90;;;2.10;;
37407;SDS011;24866;50.248;8.252;2024-03-25T01:26:53;10.48;;;2.10;;
37407;SDS011;24866;50.248;8.252;2024-03-25T01:29:22;5.38;;;1.10;;
37407;SDS011;24866;50.248;8.252;2024-03-25T01:31:52;11.80;;;2.03;;
37407;SDS011;24866;50.248;8.252;2024-03-25T01:34:21;12.43;;;2.10;;
37407;SDS011;24866;50.248;8.252;2024-03-25T01:36:51;11.50;;;2.22;;
37407;SDS011;24866;50.248;8.252;2024-03-25T01:39:22;6.35;;;2.85;;
37407;SDS011;24866;50.248;8.252;2024-03-25T01:41:53;11.68;;;2.50;;
37407;SDS011;24866;50.248;8.252;2024-03-25T01:44:22;8.50;;;1.95;;
37407;SDS011;24866;50.248;8.252;2024-03-25T01:46:52;8.85;;;1.88;;
37407;SDS011;24866;50.248;8.252;2024-03-25T01:49:23;11.77;;;1.30;;
37407;SDS011;24866;50.248;8.252;2024-03-25T01:51:52;16.42;;;2.55;;
37407;SDS011;24866;50.248;8.252;2024-03-25T01:54:23;11.60;;;2.42;;
37407;SDS011;24866;50.248;8.252;2024-03-25T01:56:53;14.05;;;2.90;;
37407;SDS011;24866;50.248;8.252;2024-03-25T01:59:24;11.25;;;2.78;;
37407;SDS011;24866;50.248;8.252;2024-03-25T02:01:54;9.52;;;1.58;;
37407;SDS011;24866;50.248;8.252;2024-03-25T02:04:24;7.43;;;1.77;;
37407;SDS011;24866;50.248;8.252;2024-03-25T02:06:54;6.00;;;1.67;;
37407;SDS011;24866;50.248;8.252;2024-03-25T02:09:27;8.93;;;1.83;;
37407;SDS011;24866;50.248;8.252;2024-03-25T02:11:57;5.90;;;1.70;;
37407;SDS011;24866;50.248;8.252;2024-03-25T02:14:27;11.82;;;2.50;;
37407;SDS011;24866;50.248;8.252;2024-03-25T02:16:56;5.82;;;1.48;;
37407;SDS011;24866;50.248;8.252;2024-03-25T02:19:26;3.67;;;1.30;;
37407;SDS011;24866;50.248;8.252;2024-03-25T02:21:56;4.63;;;0.98;;
37407;SDS011;24866;50.248;8.252;2024-03-25T02:24:28;10.38;;;2.22;;
37407;SDS011;24866;50.248;8.252;2024-03-25T02:26:59;13.98;;;1.85;;
37407;SDS011;24866;50.248;8.252;2024-03-25T02:29:32;7.82;;;1.90;;
37407;SDS011;24866;50.248;8.252;2024-03-25T02:32:02;9.07;;;2.58;;
37407;SDS011;24866;50.248;8.252;2024-03-25T02:34:32;16.42;;;2.13;;
37407;SDS011;24866;50.248;8.252;2024-03-25T02:37:01;6.05;;;1.52;;
37407;SDS011;24866;50.248;8.252;2024-03-25T02:39:32;10.90;;;2.40;;
37407;SDS011;24866;50.248;8.252;2024-03-25T02:42:03;4.85;;;1.92;;
37407;SDS011;24866;50.248;8.252;2024-03-25T02:44:33;4.10;;;1.70;;
37407;SDS011;24866;50.248;8.252;2024-03-25T02:47:02;10.30;;;2.20;;
37407;SDS011;24866;50.248;8.252;2024-03-25T02:49:33;8.43;;;2.85;;
37407;SDS011;24866;50.248;8.252;2024-03-25T02:52:03;8.70;;;2.58;;
37407;SDS011;24866;50.248;8.252;2024-03-25T02:54:33;9.73;;;2.22;;
37407;SDS011;24866;50.248;8.252;2024-03-25T02:57:04;6.80;;;1.77;;
37407;SDS011;24866;50.248;8.252;2024-03-25T02:59:34;7.88;;;2.10;;
37407;SDS011;24866;50.248;8.252;2024-03-25T03:02:03;10.35;;;2.70;;
37407;SDS011;24866;50.248;8.252;2024-03-25T03:04:33;9.38;;;2.03;;
37407;SDS011;24866;50.248;8.252;2024-03-25T03:07:03;13.63;;;3.58;;
37407;SDS011;24866;50.248;8.252;2024-03-25T03:09:33;9.82;;;1.88;;
37407;SDS011;24866;50.248;8.252;2024-03-25T03:12:04;13.95;;;1.92;;
37407;SDS011;24866;50.248;8.252;2024-03-25T03:14:34;6.07;;;2.00;;
37407;SDS011;24866;50.248;8.252;2024-03-25T03:17:04;7.90;;;1.98;;
37407;SDS011;24866;50.248;8.252;2024-03-25T03:19:34;8.48;;;1.67;;
37407;SDS011;24866;50.248;8.252;2024-03-25T03:22:03;11.95;;;3.17;;
37407;SDS011;24866;50.248;8.252;2024-03-25T03:24:33;9.40;;;2.55;;
37407;SDS011;24866;50.248;8.252;2024-03-25T03:27:04;11.07;;;2.38;;
37407;SDS011;24866;50.248;8.252;2024-03-25T03:29:34;10.63;;;2.97;;
37407;SDS011;24866;50.248;8.252;2024-03-25T03:32:03;6.13;;;2.70;;
37407;SDS011;24866;50.248;8.252;2024-03-25T03:34:33;9.45;;;2.78;;
37407;SDS011;24866;50.248;8.252;2024-03-25T03:37:03;10.82;;;2.38;;
37407;SDS011;24866;50.248;8.252;2024-03-25T03:39:33;9.15;;;2.58;;
37407;SDS011;24866;50.248;8.252;2024-03-25T03:42:03;9.52;;;2.40;;
37407;SDS011;24866;50.248;8.252;2024-03-25T03:44:34;6.20;;;2.17;;
37407;SDS011;24866;50.248;8.252;2024-03-25T03:47:03;12.50;;;2.35;;
37407;SDS011;24866;50.248;8.252;2024-03-25T03:49:33;12.18;;;1.58;;
37407;SDS011;24866;50.248;8.252;2024-03-25T03:52:03;12.98;;;3.20;;
37407;SDS011;24866;50.248;8.252;2024-03-25T03:54:33;8.15;;;2.83;;
37407;SDS011;24866;50.248;8.252;2024-03-25T03:57:04;4.40;;;1.25;;
37407;SDS011;24866;50.248;8.252;2024-03-25T03:59:34;13.98;;;3.10;;
37407;SDS011;24866;50.248;8.252;2024-03-25T04:02:03;11.38;;;2.40;;
37407;SDS011;24866;50.248;8.252;2024-03-25T04:04:33;9.10;;;2.42;;
37407;SDS011;24866;50.248;8.252;2024-03-25T04:07:02;10.63;;;2.28;;
37407;SDS011;24866;50.248;8.252;2024-03-25T04:09:33;8.52;;;2.45;;
37407;SDS011;24866;50.248;8.252;2024-03-25T04:12:03;10.88;;;2.47;;
37407;SDS011;24866;50.248;8.252;2024-03-25T04:14:34;7.25;;;2.40;;
37407;SDS011;24866;50.248;8.252;2024-03-25T04:17:03;10.75;;;2.15;;
37407;SDS011;24866;50.248;8.252;2024-03-25T04:19:33;9.35;;;2.55;;
37407;SDS011;24866;50.248;8.252;2024-03-25T04:22:02;9.75;;;2.22;;
37407;SDS011;24866;50.248;8.252;2024-03-25T04:24:32;9.15;;;2.53;;
37407;SDS011;24866;50.248;8.252;2024-03-25T04:27:04;11.75;;;2.78;;
37407;SDS011;24866;50.248;8.252;2024-03-25T04:29:34;8.75;;;2.25;;
37407;SDS011;24866;50.248;8.252;2024-03-25T04:32:03;9.68;;;2.47;;
37407;SDS011;24866;50.248;8.252;2024-03-25T04:34:33;12.27;;;2.33;;
37407;SDS011;24866;50.248;8.252;2024-03-25T04:37:04;11.55;;;2.65;;
37407;SDS011;24866;50.248;8.252;2024-03-25T04:39:33;10.18;;;2.75;;
37407;SDS011;24866;50.248;8.252;2024-03-25T04:42:04;7.75;;;2.25;;
37407;SDS011;24866;50.248;8.252;2024-03-25T04:44:33;9.75;;;2.75;;
37407;SDS011;24866;50.248;8.252;2024-03-25T04:47:02;9.73;;;2.55;;
37407;SDS011;24866;50.248;8.252;2024-03-25T04:49:31;14.90;;;3.90;;
37407;SDS011;24866;50.248;8.252;2024-03-25T04:52:00;10.15;;;2.30;;
37407;SDS011;24866;50.248;8.252;2024-03-25T04:54:30;10.25;;;2.67;;
37407;SDS011;24866;50.248;8.252;2024-03-25T04:56:59;4.50;;;2.55;;
37407;SDS011;24866;50.248;8.252;2024-03-25T04:59:30;11.60;;;2.78;;
37407;SDS011;24866;50.248;8.252;2024-03-25T05:01:59;14.00;;;2.70;;
37407;SDS011;24866;50.248;8.252;2024-03-25T05:04:28;11.68;;;2.30;;
37407;SDS011;24866;50.248;8.252;2024-03-25T05:06:58;9.98;;;2.40;;
37407;SDS011;24866;50.248;8.252;2024-03-25T05:09:27;11.90;;;3.10;;
37407;SDS011;24866;50.248;8.252;2024-03-25T05:11:56;12.02;;;1.95;;
37407;SDS011;24866;50.248;8.252;2024-03-25T05:14:26;7.38;;;2.10;;
37407;SDS011;24866;50.248;8.252;2024-03-25T05:16:56;6.15;;;2.10;;
37407;SDS011;24866;50.248;8.252;2024-03-25T05:19:26;9.38;;;1.88;;
37407;SDS011;24866;50.248;8.252;2024-03-25T05:21:55;6.97;;;2.63;;
37407;SDS011;24866;50.248;8.252;2024-03-25T05:24:24;10.45;;;2.58;;
37407;SDS011;24866;50.248;8.252;2024-03-25T05:26:53;6.55;;;2.33;;
37407;SDS011;24866;50.248;8.252;2024-03-25T05:29:23;6.00;;;1.95;;
37407;SDS011;24866;50.248;8.252;2024-03-25T05:31:57;10.48;;;2.67;;
37407;SDS011;24866;50.248;8.252;2024-03-25T05:34:27;10.35;;;2.13;;
37407;SDS011;24866;50.248;8.252;2024-03-25T05:36:57;10.32;;;2.85;;
37407;SDS011;24866;50.248;8.252;2024-03-25T05:39:26;11.88;;;2.90;;
37407;SDS011;24866;50.248;8.252;2024-03-25T05:41:55;8.55;;;3.35;;
37407;SDS011;24866;50.248;8.252;2024-03-25T05:44:24;5.40;;;1.63;;
37407;SDS011;24866;50.248;8.252;2024-03-25T05:46:53;9.45;;;2.40;;
37407;SDS011;24866;50.248;8.252;2024-03-25T05:49:24;10.82;;;3.38;;
37407;SDS011;24866;50.248;8.252;2024-03-25T05:51:53;10.57;;;2.90;;
37407;SDS011;24866;50.248;8.252;2024-03-25T05:54:22;9.55;;;2.83;;
37407;SDS011;24866;50.248;8.252;2024-03-25T05:56:52;13.63;;;3.15;;
37407;SDS011;24866;50.248;8.252;2024-03-25T05:59:21;11.75;;;2.80;;
37407;SDS011;24866;50.248;8.252;2024-03-25T06:01:50;8.68;;;2.80;;
37407;SDS011;24866;50.248;8.252;2024-03-25T06:04:19;10.30;;;3.30;;
37407;SDS011;24866;50.248;8.252;2024-03-25T06:06:50;10.02;;;2.90;;
37407;SDS011;24866;50.248;8.252;2024-03-25T06:09:19;9.23;;;2.38;;
37407;SDS011;24866;50.248;8.252;2024-03-25T06:11:49;13.90;;;3.67;;
37407;SDS011;24866;50.248;8.252;2024-03-25T06:14:18;10.95;;;3.15;;
37407;SDS011;24866;50.248;8.252;2024-03-25T06:16:47;10.43;;;2.97;;
37407;SDS011;24866;50.248;8.252;2024-03-25T06:19:16;12.27;;;2.58;;
37407;SDS011;24866;50.248;8.252;2024-03-25T06:21:45;8.35;;;2.75;;
37407;SDS011;24866;50.248;8.252;2024-03-25T06:24:16;9.57;;;2.78;;
37407;SDS011;24866;50.248;8.252;2024-03-25T06:26:45;12.73;;;2.58;;
37407;SDS011;24866;50.248;8.252;2024-03-25T06:29:14;14.15;;;3.30;;
37407;SDS011;24866;50.248;8.252;2024-03-25T06:31:44;9.73;;;2.78;;
37407;SDS011;24866;50.248;8.252;2024-03-25T06:34:31;10.68;;;2.05;;
37407;SDS011;24866;50.248;8.252;2024-03-25T06:37:00;10.85;;;2.78;;
37407;SDS011;24866;50.248;8.252;2024-03-25T06:39:31;10.93;;;2.45;;
37407;SDS011;24866;50.248;8.252;2024-03-25T06:42:00;13.68;;;3.20;;
37407;SDS011;24866;50.248;8.252;2024-03-25T06:44:30;9.30;;;2.97;;
37407;SDS011;24866;50.248;8.252;2024-03-25T06:46:59;8.57;;;2.45;;
37407;SDS011;24866;50.248;8.252;2024-03-25T06:49:28;16.10;;;2.83;;
37407;SDS011;24866;50.248;8.252;2024-03-25T06:51:57;11.35;;;2.42;;
37407;SDS011;24866;50.248;8.252;2024-03-25T06:54:27;19.80;;;4.63;;
37407;SDS011;24866;50.248;8.252;2024-03-25T06:56:57;9.40;;;2.50;;
37407;SDS011;24866;50.248;8.252;2024-03-25T06:59:26;10.48;;;2.55;;
37407;SDS011;24866;50.248;8.252;2024-03-25T07:01:56;10.93;;;2.50;;
37407;SDS011;24866;50.248;8.252;2024-03-25T07:04:25;15.05;;;3.10;;
37407;SDS011;24866;50.248;8.252;2024-03-25T07:06:54;7.93;;;2.25;;
37407;SDS011;24866;50.248;8.252;2024-03-25T07:09:23;13.85;;;2.05;;
37407;SDS011;24866;50.248;8.252;2024-03-25T07:11:53;12.25;;;2.20;;
37407;SDS011;24866;50.248;8.252;2024-03-25T07:14:23;10.75;;;2.75;;
37407;SDS011;24866;50.248;8.252;2024-03-25T07:16:52;4.10;;;1.35;;
37407;SDS011;24866;50.248;8.252;2024-03-25T07:19:21;13.05;;;2.25;;
37407;SDS011;24866;50.248;8.252;2024-03-25T07:21:51;10.52;;;1.85;;
37407;SDS011;24866;50.248;8.252;2024-03-25T07:24:20;15.27;;;2.67;;
37407;SDS011;24866;50.248;8.252;2024-03-25T07:26:49;12.85;;;2.08;;
37407;SDS011;24866;50.248;8.252;2024-03-25T07:29:18;9.82;;;2.40;;
37407;SDS011;24866;50.248;8.252;2024-03-25T07:31:49;11.95;;;2.15;;
37407;SDS011;24866;50.248;8.252;2024-03-25T07:34:18;9.88;;;1.75;;
37407;SDS011;24866;50.248;8.252;2024-03-25T07:36:48;12.32;;;2.30;;
37407;SDS011;24866;50.248;8.252;2024-03-25T07:39:17;13.60;;;2.47;;
37407;SDS011;24866;50.248;8.252;2024-03-25T07:41:46;15.27;;;2.40;;
37407;SDS011;24866;50.248;8.252;2024-03-25T07:44:15;6.80;;;1.58;;
37407;SDS011;24866;50.248;8.252;2024-03-25T07:46:45;4.13;;;1.42;;
37407;SDS011;24866;50.248;8.252;2024-03-25T07:49:15;7.40;;;2.00;;
37407;SDS011;24866;50.248;8.252;2024-03-25T07:51:44;12.50;;;1.95;;
37407;SDS011;24866;50.248;8.252;2024-03-25T07:54:14;7.70;;;1.38;;
37407;SDS011;24866;50.248;8.252;2024-03-25T07:56:43;10.93;;;1.83;;
37407;SDS011;24866;50.248;8.252;2024-03-25T07:59:12;10.80;;;2.17;;
37407;SDS011;24866;50.248;8.252;2024-03-25T08:01:41;10.85;;;2.30;;
37407;SDS011;24866;50.248;8.252;2024-03-25T08:04:10;12.57;;;2.13;;
37407;SDS011;24866;50.248;8.252;2024-03-25T08:06:41;7.20;;;1.52;;
37407;SDS011;24866;50.248;8.252;2024-03-25T08:09:10;11.48;;;2.03;;
37407;SDS011;24866;50.248;8.252;2024-03-25T08:11:40;17.52;;;2.55;;
37407;SDS011;24866;50.248;8.252;2024-03-25T08:14:09;7.75;;;2.05;;
37407;SDS011;24866;50.248;8.252;2024-03-25T08:16:38;9.75;;;1.85;;
37407;SDS011;24866;50.248;8.252;2024-03-25T08:19:08;9.80;;;1.50;;
37407;SDS011;24866;50.248;8.252;2024-03-25T08:21:37;9.80;;;2.00;;
37407;SDS011;24866;50.248;8.252;2024-03-25T08:24:08;14.63;;;1.75;;
37407;SDS011;24866;50.248;8.252;2024-03-25T08:26:37;6.95;;;2.00;;
37407;SDS011;24866;50.248;8.252;2024-03-25T08:29:06;7.78;;;1.55;;
37407;SDS011;24866;50.248;8.252;2024-03-25T08:31:35;4.80;;;0.80;;
37407;SDS011;24866;50.248;8.252;2024-03-25T08:34:05;12.65;;;2.17;;
37407;SDS011;24866;50.248;8.252;2024-03-25T08:36:34;9.20;;;1.30;;
37407;SDS011;24866;50.248;8.252;2024-03-25T08:39:03;13.27;;;2.00;;
37407;SDS011;24866;50.248;8.252;2024-03-25T08:41:34;6.85;;;1.95;;
37407;SDS011;24866;50.248;8.252;2024-03-25T08:44:03;10.05;;;1.45;;
37407;SDS011;24866;50.248;8.252;2024-03-25T08:46:32;18.85;;;2.33;;
37407;SDS011;24866;50.248;8.252;2024-03-25T08:49:02;7.38;;;1.38;;
37407;SDS011;24866;50.248;8.252;2024-03-25T08:51:31;14.18;;;2.15;;
37407;SDS011;24866;50.248;8.252;2024-03-25T08:54:00;7.20;;;1.83;;
37407;SDS011;24866;50.248;8.252;2024-03-25T08:56:29;10.35;;;1.65;;
37407;SDS011;24866;50.248;8.252;2024-03-25T08:59:00;5.20;;;1.42;;
37407;SDS011;24866;50.248;8.252;2024-03-25T09:01:29;8.27;;;1.55;;
37407;SDS011;24866;50.248;8.252;2024-03-25T09:03:58;12.32;;;2.30;;
37407;SDS011;24866;50.248;8.252;2024-03-25T09:06:28;9.60;;;1.13;;
37407;SDS011;24866;50.248;8.252;2024-03-25T09:08:57;11.68;;;1.90;;
37407;SDS011;24866;50.248;8.252;2024-03-25T09:11:45;8.25;;;1.83;;
37407;SDS011;24866;50.248;8.252;2024-03-25T09:14:16;12.40;;;1.85;;
37407;SDS011;24866;50.248;8.252;2024-03-25T09:16:45;12.90;;;2.28;;
37407;SDS011;24866;50.248;8.252;2024-03-25T09:19:15;13.10;;;1.92;;
37407;SDS011;24866;50.248;8.252;2024-03-25T09:21:44;12.80;;;1.95;;
37407;SDS011;24866;50.248;8.252;2024-03-25T09:24:13;9.40;;;2.13;;
37407;SDS011;24866;50.248;8.252;2024-03-25T09:26:43;13.80;;;2.47;;
37407;SDS011;24866;50.248;8.252;2024-03-25T09:29:12;9.68;;;1.42;;
37407;SDS011;24866;50.248;8.252;2024-03-25T09:31:43;7.93;;;1.30;;
37407;SDS011;24866;50.248;8.252;2024-03-25T09:34:12;8.32;;;1.67;;
37407;SDS011;24866;50.248;8.252;2024-03-25T09:36:42;11.32;;;2.13;;
37407;SDS011;24866;50.248;8.252;2024-03-25T09:39:11;8.27;;;1.88;;
37407;SDS011;24866;50.248;8.252;2024-03-25T09:41:40;4.80;;;1.00;;
37407;SDS011;24866;50.248;8.252;2024-03-25T09:44:11;5.10;;;1.60;;
37407;SDS011;24866;50.248;8.252;2024-03-25T09:46:41;9.80;;;1.63;;
37407;SDS011;24866;50.248;8.252;2024-03-25T09:49:11;9.25;;;1.60;;
37407;SDS011;24866;50.248;8.252;2024-03-25T09:51:41;6.70;;;1.40;;
37407;SDS011;24866;50.248;8.252;2024-03-25T09:54:10;5.68;;;1.25;;
37407;SDS011;24866;50.248;8.252;2024-03-25T09:56:39;6.10;;;1.20;;
37407;SDS011;24866;50.248;8.252;2024-03-25T09:59:09;10.63;;;1.85;;
37407;SDS011;24866;50.248;8.252;2024-03-25T10:01:39;7.85;;;1.40;;
37407;SDS011;24866;50.248;8.252;2024-03-25T10:04:08;4.28;;;0.98;;
37407;SDS011;24866;50.248;8.252;2024-03-25T10:06:40;9.68;;;1.77;;
37407;SDS011;24866;50.248;8.252;2024-03-25T10:09:10;11.63;;;1.83;;
37407;SDS011;24866;50.248;8.252;2024-03-25T10:11:39;7.55;;;1.23;;
37407;SDS011;24866;50.248;8.252;2024-03-25T10:14:09;9.60;;;1.45;;
37407;SDS011;24866;50.248;8.252;2024-03-25T10:16:38;11.32;;;2.58;;
37407;SDS011;24866;50.248;8.252;2024-03-25T10:19:07;7.72;;;1.65;;
37407;SDS011;24866;50.248;8.252;2024-03-25T10:21:36;4.57;;;0.98;;
37407;SDS011;24866;50.248;8.252;2024-03-25T10:24:07;4.50;;;0.73;;
37407;SDS011;24866;50.248;8.252;2024-03-25T10:26:37;8.45;;;1.27;;
37407;SDS011;24866;50.248;8.252;2024-03-25T10:29:06;7.80;;;1.02;;
37407;SDS011;24866;50.248;8.252;2024-03-25T10:31:35;5.60;;;1.10;;
37407;SDS011;24866;50.248;8.252;2024-03-25T10:34:04;5.97;;;1.17;;
37407;SDS011;24866;50.248;8.252;2024-03-25T10:36:33;4.28;;;0.90;;
37407;SDS011;24866;50.248;8.252;2024-03-25T10:39:03;7.05;;;1.27;;
37407;SDS011;24866;50.248;8.252;2024-03-25T10:41:34;4.93;;;1.30;;
37407;SDS011;24866;50.248;8.252;2024-03-25T10:44:04;6.00;;;1.10;;
37407;SDS011;24866;50.248;8.252;2024-03-25T10:46:35;5.38;;;1.13;;
37407;SDS011;24866;50.248;8.252;2024-03-25T10:49:06;4.90;;;1.20;;
37407;SDS011;24866;50.248;8.252;2024-03-25T10:51:39;4.82;;;1.10;;
37407;SDS011;24866;50.248;8.252;2024-03-25T10:54:10;8.13;;;1.23;;
37407;SDS011;24866;50.248;8.252;2024-03-25T10:56:41;2.92;;;0.45;;
37407;SDS011;24866;50.248;8.252;2024-03-25T10:59:10;8.52;;;1.60;;
37407;SDS011;24866;50.248;8.252;2024-03-25T11:01:41;8.55;;;1.38;;
37407;SDS011;24866;50.248;8.252;2024-03-25T11:04:10;5.30;;;1.30;;
37407;SDS011;24866;50.248;8.252;2024-03-25T11:06:40;5.80;;;1.35;;
37407;SDS011;24866;50.248;8.252;2024-03-25T11:09:09;7.65;;;1.50;;
37407;SDS011;24866;50.248;8.252;2024-03-25T11:11:38;4.75;;;1.25;;
37407;SDS011;24866;50.248;8.252;2024-03-25T11:14:16;4.85;;;1.15;;
37407;SDS011;24866;50.248;8.252;2024-03-25T11:16:50;4.75;;;1.02;;
37407;SDS011;24866;50.248;8.252;2024-03-25T11:19:20;2.38;;;0.70;;
37407;SDS011;24866;50.248;8.252;2024-03-25T11:21:50;6.97;;;1.15;;
37407;SDS011;24866;50.248;8.252;2024-03-25T11:24:26;6.18;;;0.98;;
37407;SDS011;24866;50.248;8.252;2024-03-25T11:26:56;3.03;;;0.85;;
37407;SDS011;24866;50.248;8.252;2024-03-25T11:29:26;5.68;;;1.15;;
37407;SDS011;24866;50.248;8.252;2024-03-25T11:31:56;6.47;;;1.02;;
37407;SDS011;24866;50.248;8.252;2024-03-25T11:34:27;4.75;;;0.93;;
37407;SDS011;24866;50.248;8.252;2024-03-25T11:36:57;6.18;;;1.38;;
37407;SDS011;24866;50.248;8.252;2024-03-25T11:39:26;6.60;;;1.45;;
37407;SDS011;24866;50.248;8.252;2024-03-25T11:41:55;8.65;;;1.20;;
37407;SDS011;24866;50.248;8.252;2024-03-25T11:44:26;3.55;;;1.23;;
37407;SDS011;24866;50.248;8.252;2024-03-25T11:46:57;3.72;;;1.20;;
37407;SDS011;24866;50.248;8.252;2024-03-25T11:49:26;6.57;;;1.20;;
37407;SDS011;24866;50.248;8.252;2024-03-25T11:51:58;6.35;;;1.10;;
37407;SDS011;24866;50.248;8.252;2024-03-25T11:54:27;6.47;;;1.05;;
37407;SDS011;24866;50.248;8.252;2024-03-25T11:56:57;3.17;;;1.05;;
37407;SDS011;24866;50.248;8.252;2024-03-25T11:59:27;5.28;;;1.38;;
37407;SDS011;24866;50.248;8.252;2024-03-25T12:01:57;4.82;;;1.10;;
37407;SDS011;24866;50.248;8.252;2024-03-25T12:04:26;6.28;;;1.02;;
37407;SDS011;24866;50.248;8.252;2024-03-25T12:06:56;5.90;;;1.17;;
37407;SDS011;24866;50.248;8.252;2024-03-25T12:09:25;5.80;;;1.25;;
37407;SDS011;24866;50.248;8.252;2024-03-25T12:12:13;4.07;;;1.00;;
37407;SDS011;24866;50.248;8.252;2024-03-25T12:14:44;5.82;;;1.10;;
37407;SDS011;24866;50.248;8.252;2024-03-25T12:17:14;6.05;;;1.15;;
37407;SDS011;24866;50.248;8.252;2024-03-25T12:19:43;5.70;;;1.50;;
37407;SDS011;24866;50.248;8.252;2024-03-25T12:22:13;7.07;;;1.30;;
37407;SDS011;24866;50.248;8.252;2024-03-25T12:24:42;5.63;;;1.85;;
37407;SDS011;24866;50.248;8.252;2024-03-25T12:27:17;6.93;;;1.80;;
37407;SDS011;24866;50.248;8.252;2024-03-25T12:29:56;4.38;;;0.90;;
37407;SDS011;24866;50.248;8.252;2024-03-25T12:32:35;4.72;;;1.38;;
37407;SDS011;24866;50.248;8.252;2024-03-25T12:35:08;4.72;;;1.58;;
37407;SDS011;24866;50.248;8.252;2024-03-25T12:37:37;4.22;;;1.30;;
37407;SDS011;24866;50.248;8.252;2024-03-25T12:40:07;6.65;;;1.38;;
37407;SDS011;24866;50.248;8.252;2024-03-25T12:42:38;5.25;;;1.30;;
37407;SDS011;24866;50.248;8.252;2024-03-25T12:45:09;4.80;;;1.40;;
37407;SDS011;24866;50.248;8.252;2024-03-25T12:47:38;5.13;;;1.25;;
37407;SDS011;24866;50.248;8.252;2024-03-25T12:50:08;4.82;;;1.33;;
37407;SDS011;24866;50.248;8.252;2024-03-25T12:52:37;5.60;;;1.25;;
37407;SDS011;24866;50.248;8.252;2024-03-25T12:55:07;4.07;;;0.98;;
37407;SDS011;24866;50.248;8.252;2024-03-25T12:57:36;4.90;;;1.40;;
37407;SDS011;24866;50.248;8.252;2024-03-25T13:00:06;6.18;;;1.52;;
37407;SDS011;24866;50.248;8.252;2024-03-25T13:02:37;5.75;;;1.35;;
37407;SDS011;24866;50.248;8.252;2024-03-25T13:05:07;3.95;;;1.30;;
37407;SDS011;24866;50.248;8.252;2024-03-25T13:07:36;4.30;;;1.50;;
37407;SDS011;24866;50.248;8.252;2024-03-25T13:10:06;3.25;;;1.08;;
37407;SDS011;24866;50.248;8.252;2024-03-25T13:12:36;5.15;;;1.27;;
37407;SDS011;24866;50.248;8.252;2024-03-25T13:15:06;3.47;;;1.13;;
37407;SDS011;24866;50.248;8.252;2024-03-25T13:17:37;5.38;;;1.30;;
37407;SDS011;24866;50.248;8.252;2024-03-25T13:20:07;7.10;;;1.20;;
37407;SDS011;24866;50.248;8.252;2024-03-25T13:22:36;4.68;;;1.10;;
37407;SDS011;24866;50.248;8.252;2024-03-25T13:25:06;4.40;;;1.40;;
37407;SDS011;24866;50.248;8.252;2024-03-25T13:27:35;3.90;;;1.00;;
37407;SDS011;24866;50.248;8.252;2024-03-25T13:30:05;7.65;;;1.30;;
37407;SDS011;24866;50.248;8.252;2024-03-25T13:32:37;5.15;;;1.40;;
37407;SDS011;24866;50.248;8.252;2024-03-25T13:35:06;5.00;;;1.27;;
37407;SDS011;24866;50.248;8.252;2024-03-25T13:37:36;3.88;;;0.93;;
37407;SDS011;24866;50.248;8.252;2024-03-25T13:40:05;3.97;;;0.80;;
37407;SDS011;24866;50.248;8.252;2024-03-25T13:42:35;3.75;;;0.93;;
37407;SDS011;24866;50.248;8.252;2024-03-25T13:45:04;5.22;;;1.02;;
37407;SDS011;24866;50.248;8.252;2024-03-25T13:47:34;4.03;;;1.02;;
37407;SDS011;24866;50.248;8.252;2024-03-25T13:50:05;5.70;;;1.17;;
37407;SDS011;24866;50.248;8.252;2024-03-25T13:52:35;7.25;;;1.27;;
37407;SDS011;24866;50.248;8.252;2024-03-25T13:55:04;5.22;;;1.30;;
37407;SDS011;24866;50.248;8.252;2024-03-25T13:57:33;4.57;;;1.30;;
37407;SDS011;24866;50.248;8.252;2024-03-25T14:00:03;3.30;;;1.13;;
37407;SDS011;24866;50.248;8.252;2024-03-25T14:02:32;4.28;;;1.08;;
37407;SDS011;24866;50.248;8.252;2024-03-25T14:05:02;5.57;;;1.40;;
37407;SDS011;24866;50.248;8.252;2024-03-25T14:07:32;4.45;;;1.13;;
37407;SDS011;24866;50.248;8.252;2024-03-25T14:10:02;4.50;;;1.10;;
37407;SDS011;24866;50.248;8.252;2024-03-25T14:12:31;6.60;;;0.88;;
37407;SDS011;24866;50.248;8.252;2024-03-25T14:15:00;4.30;;;1.08;;
37407;SDS011;24866;50.248;8.252;2024-03-25T14:17:30;4.10;;;1.30;;
37407;SDS011;24866;50.248;8.252;2024-03-25T14:19:59;6.55;;;1.10;;
37407;SDS011;24866;50.248;8.252;2024-03-25T14:22:29;7.03;;;1.20;;
37407;SDS011;24866;50.248;8.252;2024-03-25T14:25:00;5.20;;;1.40;;
37407;SDS011;24866;50.248;8.252;2024-03-25T14:27:29;6.45;;;1.35;;
37407;SDS011;24866;50.248;8.252;2024-03-25T14:29:58;3.42;;;1.10;;
37407;SDS011;24866;50.248;8.252;2024-03-25T14:32:28;6.20;;;1.50;;
37407;SDS011;24866;50.248;8.252;2024-03-25T14:34:57;6.20;;;1.75;;
37407;SDS011;24866;50.248;8.252;2024-03-25T14:37:26;5.28;;;1.23;;
37407;SDS011;24866;50.248;8.252;2024-03-25T14:39:55;6.03;;;1.60;;
37407;SDS011;24866;50.248;8.252;2024-03-25T14:42:26;5.05;;;1.23;;
37407;SDS011;24866;50.248;8.252;2024-03-25T14:44:55;9.45;;;1.60;;
37407;SDS011;24866;50.248;8.252;2024-03-25T14:47:25;5.78;;;1.67;;
37407;SDS011;24866;50.248;8.252;2024-03-25T14:49:54;7.88;;;1.65;;
37407;SDS011;24866;50.248;8.252;2024-03-25T14:52:23;5.28;;;1.85;;
37407;SDS011;24866;50.248;8.252;2024-03-25T14:54:52;5.75;;;1.75;;
37407;SDS011;24866;50.248;8.252;2024-03-25T14:57:22;8.93;;;2.05;;
37407;SDS011;24866;50.248;8.252;2024-03-25T14:59:52;7.18;;;1.48;;